sensor_id;sensor_type;location;lat;lon;timestamp;temperature;humidity
70214;DHT22;60138;55.808;37.078;2023-10-13T00:01:40;8.20;82.13
70214;DHT22;60138;55.808;37.078;2023-10-13T00:04:06;8.26;82.23
70214;DHT22;60138;55.808;37.078;2023-10-13T00:06:31;8.33;82.13
70214;DHT22;60138;55.808;37.078;2023-10-13T00:08:57;8.38;82.20
70214;DHT22;60138;55.808;37.078;2023-10-13T00:11:23;8.44;81.25
70214;DHT22;60138;55.808;37.078;2023-10-13T00:13:49;8.46;81.90
70214;DHT22;60138;55.808;37.078;2023-10-13T00:16:15;8.50;81.81
70214;DHT22;60138;55.808;37.078;2023-10-13T00:18:40;8.51;81.68
70214;DHT22;60138;55.808;37.078;2023-10-13T00:21:06;8.56;81.60
70214;DHT22;60138;55.808;37.078;2023-10-13T00:23:32;8.59;81.60
70214;DHT22;60138;55.808;37.078;2023-10-13T00:25:59;8.59;81.42
70214;DHT22;60138;55.808;37.078;2023-10-13T00:28:28;8.60;81.46
70214;DHT22;60138;55.808;37.078;2023-10-13T00:30:54;8.61;81.50
70214;DHT22;60138;55.808;37.078;2023-10-13T00:33:20;8.63;81.53
70214;DHT22;60138;55.808;37.078;2023-10-13T00:35:46;8.58;81.38
70214;DHT22;60138;55.808;37.078;2023-10-13T00:38:11;8.57;81.39
70214;DHT22;60138;55.808;37.078;2023-10-13T00:40:38;8.58;81.49
70214;DHT22;60138;55.808;37.078;2023-10-13T00:43:04;8.59;81.28
70214;DHT22;60138;55.808;37.078;2023-10-13T00:45:33;8.55;81.28
70214;DHT22;60138;55.808;37.078;2023-10-13T00:48:00;8.51;81.34
70214;DHT22;60138;55.808;37.078;2023-10-13T00:50:25;8.47;81.18
70214;DHT22;60138;55.808;37.078;2023-10-13T00:52:51;8.46;81.21
70214;DHT22;60138;55.808;37.078;2023-10-13T00:55:19;8.44;81.28
70214;DHT22;60138;55.808;37.078;2023-10-13T00:57:45;8.44;81.12
70214;DHT22;60138;55.808;37.078;2023-10-13T01:00:11;8.39;81.78
70214;DHT22;60138;55.808;37.078;2023-10-13T01:02:37;8.35;81.74
70214;DHT22;60138;55.808;37.078;2023-10-13T01:05:05;8.33;81.30
70214;DHT22;60138;55.808;37.078;2023-10-13T01:07:31;8.34;81.88
70214;DHT22;60138;55.808;37.078;2023-10-13T01:09:57;8.29;81.28
70214;DHT22;60138;55.808;37.078;2023-10-13T01:12:23;8.30;81.39
70214;DHT22;60138;55.808;37.078;2023-10-13T01:14:48;8.31;81.53
70214;DHT22;60138;55.808;37.078;2023-10-13T01:17:14;8.32;81.45
70214;DHT22;60138;55.808;37.078;2023-10-13T01:19:40;8.38;81.56
70214;DHT22;60138;55.808;37.078;2023-10-13T01:22:06;8.45;81.57
70214;DHT22;60138;55.808;37.078;2023-10-13T01:24:33;8.49;81.45
70214;DHT22;60138;55.808;37.078;2023-10-13T01:26:58;8.55;81.54
70214;DHT22;60138;55.808;37.078;2023-10-13T01:37:13;8.61;81.20
70214;DHT22;60138;55.808;37.078;2023-10-13T01:39:39;8.61;80.88
70214;DHT22;60138;55.808;37.078;2023-10-13T01:42:04;8.57;80.87
70214;DHT22;60138;55.808;37.078;2023-10-13T01:44:30;8.50;80.30
70214;DHT22;60138;55.808;37.078;2023-10-13T01:46:57;8.46;80.23
70214;DHT22;60138;55.808;37.078;2023-10-13T01:49:22;8.44;79.95
70214;DHT22;60138;55.808;37.078;2023-10-13T01:51:48;8.38;80.04
70214;DHT22;60138;55.808;37.078;2023-10-13T01:54:14;8.34;80.16
70214;DHT22;60138;55.808;37.078;2023-10-13T01:56:40;8.35;79.88
70214;DHT22;60138;55.808;37.078;2023-10-13T01:59:06;8.42;80.02
70214;DHT22;60138;55.808;37.078;2023-10-13T02:01:35;8.50;79.87
70214;DHT22;60138;55.808;37.078;2023-10-13T02:04:02;8.55;79.46
70214;DHT22;60138;55.808;37.078;2023-10-13T02:06:28;8.53;79.35
70214;DHT22;60138;55.808;37.078;2023-10-13T02:08:55;8.53;79.33
70214;DHT22;60138;55.808;37.078;2023-10-13T02:11:21;8.50;79.12
70214;DHT22;60138;55.808;37.078;2023-10-13T02:13:47;8.45;79.06
70214;DHT22;60138;55.808;37.078;2023-10-13T02:16:13;8.37;79.01
70214;DHT22;60138;55.808;37.078;2023-10-13T02:18:39;8.32;78.91
70214;DHT22;60138;55.808;37.078;2023-10-13T02:21:05;8.28;78.82
70214;DHT22;60138;55.808;37.078;2023-10-13T02:23:31;8.24;78.88
70214;DHT22;60138;55.808;37.078;2023-10-13T02:26:00;8.22;78.95
70214;DHT22;60138;55.808;37.078;2023-10-13T02:28:27;8.20;78.85
70214;DHT22;60138;55.808;37.078;2023-10-13T02:30:53;8.20;78.90
70214;DHT22;60138;55.808;37.078;2023-10-13T02:33:19;8.16;78.88
70214;DHT22;60138;55.808;37.078;2023-10-13T02:35:45;8.14;78.75
70214;DHT22;60138;55.808;37.078;2023-10-13T02:38:11;8.14;78.77
70214;DHT22;60138;55.808;37.078;2023-10-13T02:40:37;8.19;78.87
70214;DHT22;60138;55.808;37.078;2023-10-13T02:43:04;8.22;78.95
70214;DHT22;60138;55.808;37.078;2023-10-13T02:45:32;8.30;78.76
70214;DHT22;60138;55.808;37.078;2023-10-13T02:47:58;8.38;78.55
70214;DHT22;60138;55.808;37.078;2023-10-13T02:50:24;8.51;78.45
70214;DHT22;60138;55.808;37.078;2023-10-13T02:52:50;8.62;78.33
70214;DHT22;60138;55.808;37.078;2023-10-13T02:55:16;8.68;78.12
70214;DHT22;60138;55.808;37.078;2023-10-13T02:57:42;8.68;77.88
70214;DHT22;60138;55.808;37.078;2023-10-13T03:00:08;8.57;77.67
70214;DHT22;60138;55.808;37.078;2023-10-13T03:02:34;8.41;77.79
70214;DHT22;60138;55.808;37.078;2023-10-13T03:05:00;8.30;77.85
70214;DHT22;60138;55.808;37.078;2023-10-13T03:07:27;8.23;77.92
70214;DHT22;60138;55.808;37.078;2023-10-13T03:09:52;8.26;77.98
70214;DHT22;60138;55.808;37.078;2023-10-13T03:12:19;8.31;77.88
70214;DHT22;60138;55.808;37.078;2023-10-13T03:14:45;8.44;77.76
70214;DHT22;60138;55.808;37.078;2023-10-13T03:17:11;8.51;77.65
70214;DHT22;60138;55.808;37.078;2023-10-13T03:19:37;8.48;77.43
70214;DHT22;60138;55.808;37.078;2023-10-13T03:22:05;8.33;77.40
70214;DHT22;60138;55.808;37.078;2023-10-13T03:24:31;8.18;77.53
70214;DHT22;60138;55.808;37.078;2023-10-13T03:26:57;8.05;77.76
70214;DHT22;60138;55.808;37.078;2023-10-13T03:29:23;8.00;77.85
70214;DHT22;60138;55.808;37.078;2023-10-13T03:31:49;8.02;78.06
70214;DHT22;60138;55.808;37.078;2023-10-13T03:34:15;8.08;78.10
70214;DHT22;60138;55.808;37.078;2023-10-13T03:36:41;8.09;77.95
70214;DHT22;60138;55.808;37.078;2023-10-13T03:39:06;8.07;77.97
70214;DHT22;60138;55.808;37.078;2023-10-13T03:41:32;8.06;78.05
70214;DHT22;60138;55.808;37.078;2023-10-13T03:43:58;8.13;78.14
70214;DHT22;60138;55.808;37.078;2023-10-13T03:46:24;8.26;78.01
70214;DHT22;60138;55.808;37.078;2023-10-13T03:48:49;8.34;77.75
70214;DHT22;60138;55.808;37.078;2023-10-13T03:51:15;8.27;77.44
70214;DHT22;60138;55.808;37.078;2023-10-13T03:53:42;8.12;77.50
70214;DHT22;60138;55.808;37.078;2023-10-13T03:56:08;8.01;77.63
70214;DHT22;60138;55.808;37.078;2023-10-13T03:58:41;7.91;77.76
70214;DHT22;60138;55.808;37.078;2023-10-13T04:01:07;7.91;77.72
70214;DHT22;60138;55.808;37.078;2023-10-13T04:03:33;7.92;77.89
70214;DHT22;60138;55.808;37.078;2023-10-13T04:05:59;7.94;77.81
70214;DHT22;60138;55.808;37.078;2023-10-13T04:08:25;8.05;77.64
70214;DHT22;60138;55.808;37.078;2023-10-13T04:10:54;8.15;77.33
70214;DHT22;60138;55.808;37.078;2023-10-13T04:13:21;8.17;77.18
70214;DHT22;60138;55.808;37.078;2023-10-13T04:15:47;8.17;77.06
70214;DHT22;60138;55.808;37.078;2023-10-13T04:18:13;8.23;77.12
70214;DHT22;60138;55.808;37.078;2023-10-13T04:20:38;8.30;76.92
70214;DHT22;60138;55.808;37.078;2023-10-13T04:23:04;8.33;76.70
70214;DHT22;60138;55.808;37.078;2023-10-13T04:25:30;8.35;76.61
70214;DHT22;60138;55.808;37.078;2023-10-13T04:27:56;8.36;76.57
70214;DHT22;60138;55.808;37.078;2023-10-13T04:30:21;8.32;76.17
70214;DHT22;60138;55.808;37.078;2023-10-13T04:32:47;8.28;76.19
70214;DHT22;60138;55.808;37.078;2023-10-13T04:35:13;8.20;76.16
70214;DHT22;60138;55.808;37.078;2023-10-13T04:37:39;8.14;76.24
70214;DHT22;60138;55.808;37.078;2023-10-13T04:40:06;8.11;76.26
70214;DHT22;60138;55.808;37.078;2023-10-13T04:42:32;8.08;76.34
70214;DHT22;60138;55.808;37.078;2023-10-13T04:44:58;8.09;76.37
70214;DHT22;60138;55.808;37.078;2023-10-13T04:47:23;8.16;76.19
70214;DHT22;60138;55.808;37.078;2023-10-13T04:49:49;8.32;76.24
70214;DHT22;60138;55.808;37.078;2023-10-13T04:52:16;8.45;75.96
70214;DHT22;60138;55.808;37.078;2023-10-13T04:54:43;8.48;75.73
70214;DHT22;60138;55.808;37.078;2023-10-13T04:57:09;8.45;75.28
70214;DHT22;60138;55.808;37.078;2023-10-13T04:59:35;8.43;75.33
70214;DHT22;60138;55.808;37.078;2023-10-13T05:02:00;8.35;75.31
70214;DHT22;60138;55.808;37.078;2023-10-13T05:04:26;8.31;75.63
70214;DHT22;60138;55.808;37.078;2023-10-13T05:06:52;8.23;75.74
70214;DHT22;60138;55.808;37.078;2023-10-13T05:09:18;8.18;75.93
70214;DHT22;60138;55.808;37.078;2023-10-13T05:11:44;8.24;75.99
70214;DHT22;60138;55.808;37.078;2023-10-13T05:14:09;8.29;75.92
70214;DHT22;60138;55.808;37.078;2023-10-13T05:16:35;8.37;75.79
70214;DHT22;60138;55.808;37.078;2023-10-13T05:19:01;8.61;75.83
70214;DHT22;60138;55.808;37.078;2023-10-13T05:21:27;8.82;75.75
70214;DHT22;60138;55.808;37.078;2023-10-13T05:23:52;8.94;75.49
70214;DHT22;60138;55.808;37.078;2023-10-13T05:26:18;9.02;74.21
70214;DHT22;60138;55.808;37.078;2023-10-13T05:28:44;9.03;73.25
70214;DHT22;60138;55.808;37.078;2023-10-13T05:31:10;9.10;72.57
70214;DHT22;60138;55.808;37.078;2023-10-13T05:33:35;9.22;73.29
70214;DHT22;60138;55.808;37.078;2023-10-13T05:36:01;9.31;72.80
70214;DHT22;60138;55.808;37.078;2023-10-13T05:38:27;9.35;71.45
70214;DHT22;60138;55.808;37.078;2023-10-13T05:40:58;9.37;70.24
70214;DHT22;60138;55.808;37.078;2023-10-13T05:43:23;9.38;72.01
70214;DHT22;60138;55.808;37.078;2023-10-13T05:45:49;9.40;73.25
70214;DHT22;60138;55.808;37.078;2023-10-13T05:48:15;9.35;71.13
70214;DHT22;60138;55.808;37.078;2023-10-13T05:50:41;9.25;70.93
70214;DHT22;60138;55.808;37.078;2023-10-13T05:53:07;9.19;70.97
70214;DHT22;60138;55.808;37.078;2023-10-13T05:55:32;9.09;71.58
70214;DHT22;60138;55.808;37.078;2023-10-13T05:57:58;9.08;71.23
70214;DHT22;60138;55.808;37.078;2023-10-13T06:00:24;9.03;71.10
70214;DHT22;60138;55.808;37.078;2023-10-13T06:02:50;8.98;70.71
70214;DHT22;60138;55.808;37.078;2023-10-13T06:05:15;9.01;71.41
70214;DHT22;60138;55.808;37.078;2023-10-13T06:07:41;8.98;69.80
70214;DHT22;60138;55.808;37.078;2023-10-13T06:10:07;9.01;71.58
70214;DHT22;60138;55.808;37.078;2023-10-13T06:12:33;9.01;69.87
70214;DHT22;60138;55.808;37.078;2023-10-13T06:14:59;9.01;69.24
70214;DHT22;60138;55.808;37.078;2023-10-13T06:17:25;9.06;70.66
70214;DHT22;60138;55.808;37.078;2023-10-13T06:19:50;8.98;68.81
70214;DHT22;60138;55.808;37.078;2023-10-13T06:22:16;8.97;68.59
70214;DHT22;60138;55.808;37.078;2023-10-13T06:24:42;8.97;68.90
70214;DHT22;60138;55.808;37.078;2023-10-13T06:27:08;9.00;69.45
70214;DHT22;60138;55.808;37.078;2023-10-13T06:29:33;8.95;67.94
70214;DHT22;60138;55.808;37.078;2023-10-13T06:31:59;9.03;69.78
70214;DHT22;60138;55.808;37.078;2023-10-13T06:34:25;9.00;68.54
70214;DHT22;60138;55.808;37.078;2023-10-13T06:36:51;9.05;69.18
70214;DHT22;60138;55.808;37.078;2023-10-13T06:39:17;9.06;69.44
70214;DHT22;60138;55.808;37.078;2023-10-13T06:41:43;9.10;68.80
70214;DHT22;60138;55.808;37.078;2023-10-13T06:44:08;9.14;68.41
70214;DHT22;60138;55.808;37.078;2023-10-13T06:46:34;9.33;68.81
70214;DHT22;60138;55.808;37.078;2023-10-13T06:49:00;9.53;68.81
70214;DHT22;60138;55.808;37.078;2023-10-13T06:51:26;9.65;67.06
70214;DHT22;60138;55.808;37.078;2023-10-13T06:53:51;9.77;67.68
70214;DHT22;60138;55.808;37.078;2023-10-13T06:56:17;9.89;67.73
70214;DHT22;60138;55.808;37.078;2023-10-13T06:58:46;9.91;68.08
70214;DHT22;60138;55.808;37.078;2023-10-13T07:01:13;9.90;65.95
70214;DHT22;60138;55.808;37.078;2023-10-13T07:03:38;10.13;66.86
70214;DHT22;60138;55.808;37.078;2023-10-13T07:06:05;10.16;64.21
70214;DHT22;60138;55.808;37.078;2023-10-13T07:08:31;10.16;62.60
70214;DHT22;60138;55.808;37.078;2023-10-13T07:10:57;10.23;63.46
70214;DHT22;60138;55.808;37.078;2023-10-13T07:13:22;10.31;63.53
70214;DHT22;60138;55.808;37.078;2023-10-13T07:15:48;10.25;61.10
70214;DHT22;60138;55.808;37.078;2023-10-13T07:18:15;10.19;61.44
70214;DHT22;60138;55.808;37.078;2023-10-13T07:20:41;10.09;63.09
70214;DHT22;60138;55.808;37.078;2023-10-13T07:23:07;10.01;64.66
70214;DHT22;60138;55.808;37.078;2023-10-13T07:25:33;9.98;64.51
70214;DHT22;60138;55.808;37.078;2023-10-13T07:28:03;9.93;63.25
70214;DHT22;60138;55.808;37.078;2023-10-13T07:30:29;9.82;62.94
70214;DHT22;60138;55.808;37.078;2023-10-13T07:32:55;9.81;63.66
70214;DHT22;60138;55.808;37.078;2023-10-13T07:35:21;9.82;62.82
70214;DHT22;60138;55.808;37.078;2023-10-13T07:37:47;9.96;65.28
70214;DHT22;60138;55.808;37.078;2023-10-13T07:40:13;10.09;63.68
70214;DHT22;60138;55.808;37.078;2023-10-13T07:42:38;10.08;61.63
70214;DHT22;60138;55.808;37.078;2023-10-13T07:45:06;10.13;61.25
70214;DHT22;60138;55.808;37.078;2023-10-13T07:47:32;10.11;61.49
70214;DHT22;60138;55.808;37.078;2023-10-13T07:49:58;10.07;60.04
70214;DHT22;60138;55.808;37.078;2023-10-13T07:52:24;10.14;62.79
70214;DHT22;60138;55.808;37.078;2023-10-13T07:54:50;10.09;60.60
70214;DHT22;60138;55.808;37.078;2023-10-13T07:57:16;10.16;59.83
70214;DHT22;60138;55.808;37.078;2023-10-13T07:59:42;10.34;61.16
70214;DHT22;60138;55.808;37.078;2023-10-13T08:02:08;10.30;57.39
70214;DHT22;60138;55.808;37.078;2023-10-13T08:04:34;10.53;59.54
70214;DHT22;60138;55.808;37.078;2023-10-13T08:07:00;10.79;59.08
70214;DHT22;60138;55.808;37.078;2023-10-13T08:09:25;11.03;59.06
70214;DHT22;60138;55.808;37.078;2023-10-13T08:11:51;11.04;57.14
70214;DHT22;60138;55.808;37.078;2023-10-13T08:14:17;11.05;57.85
70214;DHT22;60138;55.808;37.078;2023-10-13T08:16:43;11.16;60.57
70214;DHT22;60138;55.808;37.078;2023-10-13T08:19:09;11.15;57.26
70214;DHT22;60138;55.808;37.078;2023-10-13T08:21:35;11.09;55.87
70214;DHT22;60138;55.808;37.078;2023-10-13T08:24:00;11.16;54.55
70214;DHT22;60138;55.808;37.078;2023-10-13T08:26:28;11.22;56.49
70214;DHT22;60138;55.808;37.078;2023-10-13T08:28:54;11.25;55.13
70214;DHT22;60138;55.808;37.078;2023-10-13T08:31:20;11.25;54.35
70214;DHT22;60138;55.808;37.078;2023-10-13T08:33:45;11.38;55.14
70214;DHT22;60138;55.808;37.078;2023-10-13T08:36:11;11.43;53.23
70214;DHT22;60138;55.808;37.078;2023-10-13T08:38:37;11.54;53.49
70214;DHT22;60138;55.808;37.078;2023-10-13T08:41:03;11.57;54.82
70214;DHT22;60138;55.808;37.078;2023-10-13T08:43:32;11.55;52.89
70214;DHT22;60138;55.808;37.078;2023-10-13T08:45:58;11.56;54.51
70214;DHT22;60138;55.808;37.078;2023-10-13T08:48:24;11.66;54.54
70214;DHT22;60138;55.808;37.078;2023-10-13T08:50:51;11.84;57.29
70214;DHT22;60138;55.808;37.078;2023-10-13T08:53:25;11.89;55.60
70214;DHT22;60138;55.808;37.078;2023-10-13T08:55:52;11.96;53.36
70214;DHT22;60138;55.808;37.078;2023-10-13T08:58:18;12.00;51.26
70214;DHT22;60138;55.808;37.078;2023-10-13T09:00:46;11.99;52.30
70214;DHT22;60138;55.808;37.078;2023-10-13T09:03:13;11.99;53.81
70214;DHT22;60138;55.808;37.078;2023-10-13T09:05:42;11.91;55.75
70214;DHT22;60138;55.808;37.078;2023-10-13T09:08:08;11.81;50.72
70214;DHT22;60138;55.808;37.078;2023-10-13T09:10:35;11.81;51.10
70214;DHT22;60138;55.808;37.078;2023-10-13T09:13:01;11.70;52.40
70214;DHT22;60138;55.808;37.078;2023-10-13T09:15:30;11.61;52.93
70214;DHT22;60138;55.808;37.078;2023-10-13T09:17:56;11.49;51.88
70214;DHT22;60138;55.808;37.078;2023-10-13T09:20:31;11.39;55.65
70214;DHT22;60138;55.808;37.078;2023-10-13T09:22:58;11.29;53.31
70214;DHT22;60138;55.808;37.078;2023-10-13T09:25:24;11.39;53.50
70214;DHT22;60138;55.808;37.078;2023-10-13T09:27:50;11.46;53.01
70214;DHT22;60138;55.808;37.078;2023-10-13T09:30:15;11.54;54.67
70214;DHT22;60138;55.808;37.078;2023-10-13T09:32:41;11.62;53.05
70214;DHT22;60138;55.808;37.078;2023-10-13T09:35:09;11.69;54.26
70214;DHT22;60138;55.808;37.078;2023-10-13T09:37:36;11.64;54.20
70214;DHT22;60138;55.808;37.078;2023-10-13T09:40:02;11.49;51.05
70214;DHT22;60138;55.808;37.078;2023-10-13T09:42:29;11.44;51.88
70214;DHT22;60138;55.808;37.078;2023-10-13T09:44:55;11.48;49.19
70214;DHT22;60138;55.808;37.078;2023-10-13T09:47:22;11.61;49.44
70214;DHT22;60138;55.808;37.078;2023-10-13T09:49:49;11.56;48.54
70214;DHT22;60138;55.808;37.078;2023-10-13T09:52:19;11.58;50.32
70214;DHT22;60138;55.808;37.078;2023-10-13T09:55:00;11.58;50.74
70214;DHT22;60138;55.808;37.078;2023-10-13T09:57:34;11.45;51.14
70214;DHT22;60138;55.808;37.078;2023-10-13T10:00:12;11.39;49.88
70214;DHT22;60138;55.808;37.078;2023-10-13T10:02:39;11.32;48.82
70214;DHT22;60138;55.808;37.078;2023-10-13T10:05:05;11.31;50.52
70214;DHT22;60138;55.808;37.078;2023-10-13T10:07:31;11.31;50.40
70214;DHT22;60138;55.808;37.078;2023-10-13T10:09:59;11.19;49.26
70214;DHT22;60138;55.808;37.078;2023-10-13T10:17:54;11.40;50.41
70214;DHT22;60138;55.808;37.078;2023-10-13T10:20:28;11.38;49.21
70214;DHT22;60138;55.808;37.078;2023-10-13T10:22:58;11.39;52.02
70214;DHT22;60138;55.808;37.078;2023-10-13T10:25:29;11.34;52.00
70214;DHT22;60138;55.808;37.078;2023-10-13T10:27:56;11.30;50.06
70214;DHT22;60138;55.808;37.078;2023-10-13T10:30:29;11.46;51.77
70214;DHT22;60138;55.808;37.078;2023-10-13T10:32:56;11.62;51.20
70214;DHT22;60138;55.808;37.078;2023-10-13T10:35:23;11.74;50.37
70214;DHT22;60138;55.808;37.078;2023-10-13T10:37:49;11.72;49.47
70214;DHT22;60138;55.808;37.078;2023-10-13T10:40:16;11.85;50.62
70214;DHT22;60138;55.808;37.078;2023-10-13T10:42:42;11.96;49.98
70214;DHT22;60138;55.808;37.078;2023-10-13T10:45:10;12.02;53.00
70214;DHT22;60138;55.808;37.078;2023-10-13T10:47:36;12.00;45.51
70214;DHT22;60138;55.808;37.078;2023-10-13T10:50:02;12.10;47.74
70214;DHT22;60138;55.808;37.078;2023-10-13T10:52:29;12.10;46.40
70214;DHT22;60138;55.808;37.078;2023-10-13T10:54:59;12.21;49.60
70214;DHT22;60138;55.808;37.078;2023-10-13T10:57:26;12.33;48.05
70214;DHT22;60138;55.808;37.078;2023-10-13T10:59:51;12.28;47.41
70214;DHT22;60138;55.808;37.078;2023-10-13T11:02:17;12.25;47.65
70214;DHT22;60138;55.808;37.078;2023-10-13T11:04:43;12.31;49.78
70214;DHT22;60138;55.808;37.078;2023-10-13T11:07:09;12.34;49.89
70214;DHT22;60138;55.808;37.078;2023-10-13T11:09:35;12.23;48.97
70214;DHT22;60138;55.808;37.078;2023-10-13T11:14:33;12.21;49.93
70214;DHT22;60138;55.808;37.078;2023-10-13T11:16:59;12.21;46.35
70214;DHT22;60138;55.808;37.078;2023-10-13T11:19:38;12.29;46.61
70214;DHT22;60138;55.808;37.078;2023-10-13T11:22:14;12.34;47.54
70214;DHT22;60138;55.808;37.078;2023-10-13T11:24:41;12.32;49.89
70214;DHT22;60138;55.808;37.078;2023-10-13T11:27:17;12.38;52.09
70214;DHT22;60138;55.808;37.078;2023-10-13T11:29:42;12.50;49.90
70214;DHT22;60138;55.808;37.078;2023-10-13T11:32:08;12.49;52.01
70214;DHT22;60138;55.808;37.078;2023-10-13T11:34:34;12.51;51.56
70214;DHT22;60138;55.808;37.078;2023-10-13T11:37:00;12.62;51.21
70214;DHT22;60138;55.808;37.078;2023-10-13T11:39:25;12.59;46.79
70214;DHT22;60138;55.808;37.078;2023-10-13T11:41:51;12.64;48.70
70214;DHT22;60138;55.808;37.078;2023-10-13T11:44:17;12.53;45.58
70214;DHT22;60138;55.808;37.078;2023-10-13T11:46:43;12.86;45.03
70214;DHT22;60138;55.808;37.078;2023-10-13T11:49:10;13.18;46.21
70214;DHT22;60138;55.808;37.078;2023-10-13T11:51:36;13.40;45.20
70214;DHT22;60138;55.808;37.078;2023-10-13T11:54:02;13.68;43.39
70214;DHT22;60138;55.808;37.078;2023-10-13T11:56:27;13.49;47.05
70214;DHT22;60138;55.808;37.078;2023-10-13T11:58:53;13.54;49.40
70214;DHT22;60138;55.808;37.078;2023-10-13T12:01:19;13.64;45.53
70214;DHT22;60138;55.808;37.078;2023-10-13T12:03:47;13.51;44.77
70214;DHT22;60138;55.808;37.078;2023-10-13T12:06:13;13.32;44.72
70214;DHT22;60138;55.808;37.078;2023-10-13T12:08:39;13.27;49.93
70214;DHT22;60138;55.808;37.078;2023-10-13T12:11:04;13.22;45.96
70214;DHT22;60138;55.808;37.078;2023-10-13T12:13:30;13.30;46.24
70214;DHT22;60138;55.808;37.078;2023-10-13T12:15:56;13.18;46.61
70214;DHT22;60138;55.808;37.078;2023-10-13T12:18:22;13.04;46.12
70214;DHT22;60138;55.808;37.078;2023-10-13T12:20:48;13.08;46.47
70214;DHT22;60138;55.808;37.078;2023-10-13T12:23:13;13.26;47.37
70214;DHT22;60138;55.808;37.078;2023-10-13T12:25:39;13.36;48.04
70214;DHT22;60138;55.808;37.078;2023-10-13T12:28:05;13.62;49.43
70214;DHT22;60138;55.808;37.078;2023-10-13T12:30:31;13.96;48.40
70214;DHT22;60138;55.808;37.078;2023-10-13T12:32:56;14.13;48.26
70214;DHT22;60138;55.808;37.078;2023-10-13T12:35:22;14.15;49.56
70214;DHT22;60138;55.808;37.078;2023-10-13T12:37:48;14.44;48.31
70214;DHT22;60138;55.808;37.078;2023-10-13T12:40:15;14.79;48.90
70214;DHT22;60138;55.808;37.078;2023-10-13T12:42:41;14.66;45.86
70214;DHT22;60138;55.808;37.078;2023-10-13T12:45:07;14.47;47.99
70214;DHT22;60138;55.808;37.078;2023-10-13T12:47:33;14.35;49.40
70214;DHT22;60138;55.808;37.078;2023-10-13T12:49:59;14.12;44.32
70214;DHT22;60138;55.808;37.078;2023-10-13T12:52:25;13.95;50.21
70214;DHT22;60138;55.808;37.078;2023-10-13T12:54:51;13.82;47.53
70214;DHT22;60138;55.808;37.078;2023-10-13T12:57:17;13.65;49.30
70214;DHT22;60138;55.808;37.078;2023-10-13T12:59:43;13.50;48.28
70214;DHT22;60138;55.808;37.078;2023-10-13T13:02:09;13.39;49.02
70214;DHT22;60138;55.808;37.078;2023-10-13T13:04:35;13.26;50.53
70214;DHT22;60138;55.808;37.078;2023-10-13T13:07:01;13.14;50.66
70214;DHT22;60138;55.808;37.078;2023-10-13T13:09:26;13.01;50.15
70214;DHT22;60138;55.808;37.078;2023-10-13T13:11:55;12.91;50.63
70214;DHT22;60138;55.808;37.078;2023-10-13T13:14:21;12.85;51.15
70214;DHT22;60138;55.808;37.078;2023-10-13T13:16:47;12.74;47.88
70214;DHT22;60138;55.808;37.078;2023-10-13T13:19:12;12.77;50.83
70214;DHT22;60138;55.808;37.078;2023-10-13T13:21:38;12.75;51.85
70214;DHT22;60138;55.808;37.078;2023-10-13T13:24:05;12.70;51.61
70214;DHT22;60138;55.808;37.078;2023-10-13T13:26:31;12.62;51.88
70214;DHT22;60138;55.808;37.078;2023-10-13T13:28:57;12.51;50.68
70214;DHT22;60138;55.808;37.078;2023-10-13T13:31:23;12.43;50.45
70214;DHT22;60138;55.808;37.078;2023-10-13T13:33:49;12.31;50.69
70214;DHT22;60138;55.808;37.078;2023-10-13T13:36:15;12.26;51.43
70214;DHT22;60138;55.808;37.078;2023-10-13T13:38:41;12.14;52.12
70214;DHT22;60138;55.808;37.078;2023-10-13T13:41:14;12.05;52.80
70214;DHT22;60138;55.808;37.078;2023-10-13T13:43:41;11.97;52.91
70214;DHT22;60138;55.808;37.078;2023-10-13T13:46:10;11.86;52.52
70214;DHT22;60138;55.808;37.078;2023-10-13T13:48:36;11.82;52.88
70214;DHT22;60138;55.808;37.078;2023-10-13T13:51:06;11.75;52.18
70214;DHT22;60138;55.808;37.078;2023-10-13T13:53:32;11.71;53.48
70214;DHT22;60138;55.808;37.078;2023-10-13T13:56:02;11.63;53.30
70214;DHT22;60138;55.808;37.078;2023-10-13T13:58:28;11.55;53.86
70214;DHT22;60138;55.808;37.078;2023-10-13T14:01:00;11.46;53.20
70214;DHT22;60138;55.808;37.078;2023-10-13T14:03:25;11.40;53.36
70214;DHT22;60138;55.808;37.078;2023-10-13T14:05:51;11.36;53.24
70214;DHT22;60138;55.808;37.078;2023-10-13T14:08:17;11.34;53.86
70214;DHT22;60138;55.808;37.078;2023-10-13T14:10:43;11.27;53.47
70214;DHT22;60138;55.808;37.078;2023-10-13T14:13:08;11.22;54.81
70214;DHT22;60138;55.808;37.078;2023-10-13T14:15:34;11.15;55.34
70214;DHT22;60138;55.808;37.078;2023-10-13T14:18:00;11.07;54.82
70214;DHT22;60138;55.808;37.078;2023-10-13T14:20:26;11.00;54.71
70214;DHT22;60138;55.808;37.078;2023-10-13T14:22:51;10.94;55.04
70214;DHT22;60138;55.808;37.078;2023-10-13T14:25:17;10.86;55.32
70214;DHT22;60138;55.808;37.078;2023-10-13T14:27:44;10.81;55.46
70214;DHT22;60138;55.808;37.078;2023-10-13T14:30:11;10.70;55.27
70214;DHT22;60138;55.808;37.078;2023-10-13T14:32:36;10.60;55.83
70214;DHT22;60138;55.808;37.078;2023-10-13T14:35:02;10.49;56.06
70214;DHT22;60138;55.808;37.078;2023-10-13T14:37:31;10.36;56.19
70214;DHT22;60138;55.808;37.078;2023-10-13T14:39:57;10.28;56.61
70214;DHT22;60138;55.808;37.078;2023-10-13T14:42:27;10.21;56.68
70214;DHT22;60138;55.808;37.078;2023-10-13T14:44:53;10.11;57.00
70214;DHT22;60138;55.808;37.078;2023-10-13T14:47:19;10.00;57.22
70214;DHT22;60138;55.808;37.078;2023-10-13T14:49:45;9.92;57.48
70214;DHT22;60138;55.808;37.078;2023-10-13T14:52:11;9.86;57.58
70214;DHT22;60138;55.808;37.078;2023-10-13T14:54:36;9.83;57.71
70214;DHT22;60138;55.808;37.078;2023-10-13T14:57:02;9.79;57.65
70214;DHT22;60138;55.808;37.078;2023-10-13T14:59:29;9.74;58.06
70214;DHT22;60138;55.808;37.078;2023-10-13T15:01:55;9.68;58.19
70214;DHT22;60138;55.808;37.078;2023-10-13T15:04:21;9.62;58.43
70214;DHT22;60138;55.808;37.078;2023-10-13T15:06:46;9.55;58.67
70214;DHT22;60138;55.808;37.078;2023-10-13T15:09:12;9.51;58.72
70214;DHT22;60138;55.808;37.078;2023-10-13T15:11:38;9.44;58.90
70214;DHT22;60138;55.808;37.078;2023-10-13T15:14:05;9.39;59.13
70214;DHT22;60138;55.808;37.078;2023-10-13T15:16:31;9.32;59.25
70214;DHT22;60138;55.808;37.078;2023-10-13T15:18:57;9.26;59.33
70214;DHT22;60138;55.808;37.078;2023-10-13T15:21:27;9.17;59.65
70214;DHT22;60138;55.808;37.078;2023-10-13T15:23:54;9.08;59.86
70214;DHT22;60138;55.808;37.078;2023-10-13T15:26:20;9.00;60.05
70214;DHT22;60138;55.808;37.078;2023-10-13T15:28:46;8.92;60.19
70214;DHT22;60138;55.808;37.078;2023-10-13T15:31:12;8.88;60.43
70214;DHT22;60138;55.808;37.078;2023-10-13T15:33:38;8.85;60.45